Carson Valley, Nevada Weather observations

Data are for 10 minute period ending at time listed.
 Day   Time   Solar   Ave.   Ave.  Ave.  Vector  Max.   Baro.   Total    
  of    of     Rad.   Air    Rel.  Wind   Wind   Wind  Press.  Precip.   
Year   Day            Temp.  Hum.  Speed  Dir.   Gust                    
2016   (PST)  Kw/m2    F      %     mph   deg.    mph    mb.     in.     
-------------------------------------------------------------------------
  38    2:00   0.00   26.2    95    1.1   171     2.0   869.6    0.00 
  38    2:10   0.00   25.5    94    0.6   158     1.5   869.7    0.00 
  38    2:20   0.00   25.3    95    1.5   151     2.1   869.8    0.00 
  38    2:30   0.00   25.6    97    1.6   166     2.5   869.7    0.00 
  38    2:40   0.00   25.1    95    3.1   148     4.3   869.7    0.00 
  38    2:50   0.00   25.0    97    1.2   187     3.9   869.7    0.00 
  38    3:00   0.00   24.8    96    0.8   260     1.5   869.7    0.00 
  38    3:10   0.00   25.0    97    1.8   344     3.4   869.7    0.00 
  38    3:20   0.00   25.4    97    3.5   330     4.3   869.9    0.00 
  38    3:30   0.00   25.8    97    2.3   334     3.7   870.0    0.00 
  38    3:40   0.00   25.6    96    2.2   306     2.9   870.0    0.00 
  38    3:50   0.00   25.4    97    1.4   330     2.0   870.1    0.00 
  38    4:00   0.00   25.4    97    0.4   136     1.3   869.9    0.00 
  38    4:10   0.00   24.9    95    2.1   149     3.9   869.9    0.00 
  38    4:20   0.00   23.8    94    1.5   175     2.3   869.9    0.00 
  38    4:30   0.00   24.7    98    1.0   161     1.5   870.0    0.00 
  38    4:40   0.00   24.4    96    2.4   125     4.0   870.1    0.00 
  38    4:50   0.00   24.1    96    2.1    98     3.5   870.2    0.00 
  38    5:00   0.00   24.5    98    0.7   134     2.2   870.3    0.00 
  38    5:10   0.00   24.3    95    1.4   285     2.0   870.3    0.00 
  38    5:20   0.00   24.4    96    0.9   251     1.5   870.4    0.00 
  38    5:30   0.00   24.3    95    0.9   265     1.4   870.4    0.00 
  38    5:40   0.00   24.8    97    0.5   270     1.3   870.5    0.00 
  38    5:50   0.00   25.1    97    1.3   350     2.0   870.5    0.00 
  38    6:00   0.00   25.0    96    0.3    21     1.1   870.6    0.00 
  38    6:10   0.00   24.5    95    2.4    87     4.7   870.8    0.00 
  38    6:20   0.00   23.7    94    2.8    80     3.5   870.9    0.00 
  38    6:30   0.00   24.0    95    2.3    89     2.9   871.0    0.00 
  38    6:40   0.00   24.0    94    1.3   149     2.2   871.1    0.00 
  38    6:50   0.00   23.5    93    1.4   192     2.9   871.2    0.00 
  38    7:00   0.00   23.6    94    1.7   218     2.7   871.5    0.00 
  38    7:10   0.01   23.7    94    2.3   231     2.9   871.6    0.00 
  38    7:20   0.01   23.7    94    2.4   250     3.1   871.8    0.00 
  38    7:30   0.06   24.7    95    2.0   196     3.0   871.8    0.00 
  38    7:40   0.10   25.7    92    1.8   171     2.7   871.9    0.00 
  38    7:50   0.12   26.7    91    1.5   166     2.3   871.9    0.00 
  38    8:00   0.15   28.1    89    1.9   176     2.5   871.9    0.00 
  38    8:10   0.18   29.2    86    1.9   155     2.5   872.0    0.00 
  38    8:20   0.20   29.7    85    0.7   260     1.5   872.2    0.00 
  38    8:30   0.23   30.5    83    0.6   273     1.2   872.1    0.00 
  38    8:40   0.27   33.0    81    0.4   160     2.0   872.1    0.00 
  38    8:50   0.30   34.4    77    1.7    58     3.7   872.2    0.00 
  38    9:00   0.33   33.0    82    3.1    23     4.2   872.3    0.00 
  38    9:10   0.36   33.6    82    1.9   360     4.2   872.3    0.00 
  38    9:20   0.38   34.7    80    0.7   326     2.0   872.3    0.00 
  38    9:30   0.41   37.7    72    0.4   189     1.6   872.2    0.00 
  38    9:40   0.43   38.5    70    1.8   171     3.4   872.0    0.00 
  38    9:50   0.46   39.1    70    2.0   166     3.9   871.7    0.00 
  38   10:00   0.48   38.9    72    3.1   141     4.5   871.6    0.00 
  38   10:10   0.50   39.2    70    2.5   113     4.9   871.6    0.00 
  38   10:20   0.52   40.6    65    0.9   336     2.1   871.7    0.00 
  38   10:30   0.54   40.6    64    0.9   330     2.4   871.8    0.00 
  38   10:40   0.56   41.6    63    2.2    37     4.3   871.8    0.00 
  38   10:50   0.57   41.4    60    1.9    38     4.1   871.8    0.00 
  38   11:00   0.59   41.9    58    2.5   350     4.5   871.8    0.00 
  38   11:10   0.60   42.1    58    1.7   330     4.2   871.8    0.00 
  38   11:20   0.61   43.3    57    1.9   358     3.7   871.8    0.00 
  38   11:30   0.62   43.4    58    2.5   328     4.5   871.6    0.00 
  38   11:40   0.62   45.4    55    1.4    14     3.5   871.4    0.00 
  38   11:50   0.63   45.6    55    1.5   287     3.3   871.3    0.00 
  38   12:00   0.63   45.9    55    2.4   220     4.4   871.2    0.00 
  38   12:10   0.64   47.5    52    1.4   184     3.1   871.0    0.00 
  38   12:20   0.64   47.5    52    1.2   278     2.7   870.9    0.00 
  38   12:30   0.63   48.5    51    1.1   294     3.5   870.8    0.00 
  38   12:40   0.63   49.1    49    5.7    12    10.1   870.7    0.00 
  38   12:50   0.62   49.4    46    5.6    16     9.1   870.5    0.00 
  38   13:00   0.62   49.9    45    5.7    24    10.0   870.3    0.00 
  38   13:10   0.61   50.1    44    7.6    14    10.3   870.2    0.00 
  38   13:20   0.60   50.2    46    9.0    21    12.3   870.1    0.00 
  38   13:30   0.58   50.3    47    9.5    14    12.9   870.0    0.00 
  38   13:40   0.57   50.7    46    9.1    17    14.5   870.0    0.00 
  38   13:50   0.56   51.0    44    8.6    18    12.6   869.9    0.00 
  38   14:00   0.54   51.4    41    9.8    13    14.0   869.8    0.00 
  38   14:10   0.52   51.3    41   10.8     5    14.0   869.9    0.00 
  38   14:20   0.50   51.3    42   10.9     2    15.5   869.9    0.00 
  38   14:30   0.48   51.5    42   11.0     7    15.1   869.8    0.00 
  38   14:40   0.45   51.6    43    9.6     6    13.5   869.8    0.00 
  38   14:50   0.43   51.7    45   10.0     3    14.7   869.8    0.00 
  38   15:00   0.40   51.9    42    9.2     8    14.4   869.8    0.00 
  38   15:10   0.38   52.1    44    9.6    10    14.0   869.8    0.00 
  38   15:20   0.35   51.6    42   10.8     2    15.6   869.8    0.00 
  38   15:30   0.32   50.8    45   12.3   352    17.2   869.8    0.00 
  38   15:40   0.29   50.3    48   12.1   354    17.5   869.9    0.00 
  38   15:50   0.26   49.7    50   14.1   345    18.9   870.0    0.00 
  38   16:00   0.23   49.3    52   13.2   341    16.7   870.0    0.00 
  38   16:10   0.20   48.8    51   13.7   346    18.3   870.0    0.00 
  38   16:20   0.18   48.1    52   14.1   344    19.0   870.0    0.00 
  38   16:30   0.15   47.5    53   13.4   344    18.9   870.0    0.00 
  38   16:40   0.12   46.9    52   13.2   342    18.2   870.0    0.00 
  38   16:50   0.08   46.0    53   12.3   332    16.4   870.0    0.00 
  38   17:00   0.01   44.3    56   13.1   332    17.6   870.0    0.00 
  38   17:10   0.01   43.9    57   12.4   338    15.9   870.0    0.00 
  38   17:20   0.01   43.5    57   13.2   341    17.5   870.0    0.00 
  38   17:30   0.01   43.2    58   13.2   348    18.0   870.0    0.00 
  38   17:40   0.00   42.9    58   12.9   350    18.9   870.1    0.00 
  38   17:50   0.00   43.0    57   13.8   352    18.7   870.1    0.00 
  38   18:00   0.00   42.7    59   13.6   354    17.2   870.2    0.00 
  38   18:10   0.00   42.2    61   13.3   350    18.8   870.4    0.00 
  38   18:20   0.00   42.2    61   13.6   349    19.1   870.5    0.00 
  38   18:30   0.00   41.8    62   12.9   350    17.5   870.7    0.00 
  38   18:40   0.00   41.9    62   12.8   354    17.7   870.8    0.00 
  38   18:50   0.00   41.7    62   11.4   355    15.1   870.8    0.00 
  38   19:00   0.00   41.0    64   10.4   356    14.5   870.9    0.00 
  38   19:10   0.00   41.0    65   11.7   358    15.4   870.9    0.00 
  38   19:20   0.00   41.3    64   10.4     0    14.5   871.1    0.00 
  38   19:30   0.00   41.0    64    9.5     2    14.3   871.2    0.00 
  38   19:40   0.00   40.2    67    8.4    10    11.1   871.2    0.00 
  38   19:50   0.00   39.3    70    8.2    15    10.7   871.3    0.00 
  38   20:00   0.00   38.2    73    5.9    26     9.6   871.4    0.00 
  38   20:10   0.00   36.6    77    6.2    38     7.7   871.5    0.00 
  38   20:20   0.00   35.9    78    5.2    52     7.5   871.7    0.00 
  38   20:30   0.00   34.0    82    4.8    61     5.7   871.8    0.00 
  38   20:40   0.00   33.6    82    4.5    62     6.1   871.9    0.00 
  38   20:50   0.00   34.6    80    4.8    46     5.8   872.0    0.00 
  38   21:00   0.00   34.5    81    5.0    39     5.6   872.2    0.00 
  38   21:10   0.00   34.0    82    4.4    46     5.2   872.2    0.00 
  38   21:20   0.00   33.5    82    4.6    51     5.8   872.2    0.00 
  38   21:30   0.00   33.2    82    4.4    54     5.6   872.2    0.00 
  38   21:40   0.00   33.4    80    2.6    47     4.7   872.3    0.00 
  38   21:50   0.00   34.6    81    1.8   297     4.7   872.5    0.00 
  38   22:00   0.00   35.8    78    2.6    12     5.6   872.6    0.00 
  38   22:10   0.00   35.3    78    3.3    36     6.1   872.7    0.00 
  38   22:20   0.00   33.2    82    1.7   237     3.5   872.8    0.00 
  38   22:30   0.00   33.6    83    1.4   300     1.9   872.9    0.00 
  38   22:40   0.00   33.7    82    3.1   310     4.1   873.0    0.00 
  38   22:50   0.00   33.8    82    4.1   308     4.9   873.0    0.00 
  38   23:00   0.00   35.7    77    3.5   305     5.1   873.1    0.00 
  38   23:10   0.00   33.3    78    2.2   115     3.2   873.1    0.00 
  38   23:20   0.00   29.8    86    3.9   112     4.6   873.2    0.00 
  38   23:30   0.00   28.9    88    4.1   133     4.9   873.1    0.00 
  38   23:40   0.00   28.9    90    3.0   164     4.2   873.1    0.00 
  38   23:50   0.00   29.4    90    2.7   163     3.5   873.1    0.00 
  39    0:00   0.00   28.7    89    3.0   172     4.0   873.1    0.00 
  39    0:10   0.00   28.9    91    2.3   171     2.7   873.2    0.00 
  39    0:20   0.00   29.6    90    2.2   191     3.0   873.3    0.00 
  39    0:30   0.00   28.8    88    0.9   242     2.0   873.3    0.00 
  39    0:40   0.00   28.3    89    0.8   220     1.9   873.3    0.00 
  39    0:50   0.00   28.2    90    2.1   171     4.3   873.1    0.00 
  39    1:00   0.00   27.1    91    3.5   160     4.3   873.1    0.00 
  39    1:10   0.00   27.2    92    4.1   151     5.1   873.1    0.00 
  39    1:20   0.00   26.9    92    3.7   144     4.5   873.0    0.00 
  39    1:30   0.00   26.3    92    2.4   163     3.9   873.0    0.00 
  39    1:40   0.00   26.1    92    1.5   260     2.6   873.0    0.00 
  39    1:50   0.00   26.8    93    0.5   268     1.5   873.0    0.00 

Return to Carson Valley graphs page.


Western Regional Climate Center,wrcc@dri.edu